createdAt,value
2023-05-10T00:06:11.925Z,18.84
2023-05-10T00:08:39.749Z,18.84
2023-05-10T00:11:07.638Z,18.84
2023-05-10T00:13:35.559Z,18.83
2023-05-10T01:03:03.144Z,18.82
2023-05-10T01:05:31.200Z,18.82
2023-05-10T01:07:59.232Z,18.81
2023-05-10T01:10:27.108Z,18.83
2023-05-10T01:12:56.205Z,18.84
2023-05-10T01:47:35.080Z,18.81
2023-05-10T01:50:05.620Z,18.81
2023-05-10T01:52:34.613Z,18.81
2023-05-10T01:55:02.746Z,18.80
2023-05-10T01:57:40.476Z,18.80
2023-05-10T02:46:14.005Z,18.80
2023-05-10T02:48:43.618Z,18.80
2023-05-10T02:51:14.701Z,18.80
2023-05-10T02:53:43.420Z,18.80
2023-05-10T02:56:12.700Z,18.82
2023-05-10T02:58:40.623Z,18.81
2023-05-10T03:48:22.941Z,18.79
2023-05-10T03:50:52.364Z,18.79
2023-05-10T03:53:20.380Z,18.77
2023-05-10T03:55:48.384Z,18.77
2023-05-10T03:58:16.454Z,18.78
2023-05-10T04:46:17.596Z,18.78
2023-05-10T04:48:45.578Z,18.52
2023-05-10T04:51:28.224Z,18.54
2023-05-10T13:38:38.281Z,19.11
2023-05-10T13:47:08.273Z,19.10
2023-05-10T13:56:38.318Z,19.13
2023-05-10T13:59:12.136Z,19.12
2023-05-10T14:01:41.538Z,19.11
2023-05-10T14:04:28.727Z,19.11
2023-05-10T14:06:57.557Z,19.11
2023-05-10T14:09:25.638Z,19.11
2023-05-10T14:11:53.569Z,19.11
2023-05-10T14:14:23.504Z,19.11
2023-05-10T14:16:51.338Z,19.09
2023-05-10T14:19:49.476Z,19.10
2023-05-10T14:22:34.888Z,19.11
2023-05-10T14:25:03.074Z,19.11
2023-05-10T14:27:31.293Z,19.12
2023-05-10T14:30:00.790Z,19.11
2023-05-10T14:32:28.922Z,19.11
2023-05-10T14:34:56.964Z,19.12
2023-05-10T14:37:27.232Z,19.12
2023-05-10T14:39:55.427Z,19.11
2023-05-10T14:42:23.664Z,19.12
2023-05-10T14:44:51.667Z,19.12
2023-05-10T14:47:21.057Z,19.12
2023-05-10T14:49:49.015Z,19.13
2023-05-10T14:52:17.000Z,19.13
2023-05-10T14:54:44.999Z,19.13
2023-05-10T14:57:19.305Z,19.12
2023-05-10T15:00:08.216Z,19.12
2023-05-10T15:02:37.974Z,19.11
2023-05-10T15:05:07.223Z,19.11
2023-05-10T15:07:35.780Z,19.11
2023-05-10T15:10:04.215Z,19.11
2023-05-10T15:12:32.288Z,19.12
2023-05-10T15:15:00.341Z,19.13
2023-05-10T15:17:46.970Z,19.13
2023-05-10T15:20:20.197Z,19.14
2023-05-10T15:22:49.509Z,19.12
2023-05-10T15:25:18.309Z,19.13
2023-05-10T15:27:49.535Z,19.13
2023-05-10T15:30:17.601Z,19.13
2023-05-10T15:32:46.324Z,19.13
2023-05-10T15:39:20.899Z,19.15
2023-05-10T15:41:49.917Z,19.15
2023-05-10T15:44:19.496Z,19.16
2023-05-10T15:46:47.800Z,19.14
2023-05-10T15:49:18.699Z,19.14
2023-05-10T15:51:55.599Z,19.13
2023-05-10T15:54:26.316Z,19.13
2023-05-10T15:56:57.028Z,19.13
2023-05-10T15:59:25.303Z,19.14
2023-05-10T16:01:55.959Z,19.16
2023-05-10T16:04:24.166Z,19.17
2023-05-10T16:06:52.293Z,19.17
2023-05-10T16:09:20.190Z,19.18
2023-05-10T16:11:49.583Z,19.17
2023-05-10T16:14:17.709Z,19.18
2023-05-10T16:16:46.143Z,19.18
2023-05-10T16:19:14.335Z,19.17
2023-05-10T16:21:42.364Z,19.18
2023-05-10T16:24:10.347Z,19.17
2023-05-10T16:26:41.186Z,19.18
2023-05-10T16:29:10.740Z,19.18
2023-05-10T16:31:40.286Z,19.19
2023-05-10T16:34:08.424Z,19.19
2023-05-10T16:36:36.578Z,19.18
2023-05-10T16:39:09.462Z,19.18
2023-05-10T16:41:39.536Z,19.18
2023-05-10T16:44:07.460Z,19.18
2023-05-10T16:46:36.959Z,19.18
2023-05-10T16:49:08.940Z,19.18
2023-05-10T16:51:36.988Z,19.19
2023-05-10T16:54:06.965Z,19.19
2023-05-10T16:56:35.060Z,19.19
2023-05-10T16:59:11.005Z,19.19
2023-05-10T17:01:45.115Z,19.19
2023-05-10T17:04:15.642Z,19.18
2023-05-10T17:06:43.744Z,19.18
2023-05-10T17:09:16.876Z,19.19
2023-05-10T17:11:44.884Z,19.17
2023-05-10T17:14:13.520Z,19.18
2023-05-10T17:16:43.180Z,19.17
2023-05-10T17:19:12.405Z,19.18
2023-05-10T17:21:47.669Z,19.19
2023-05-10T17:24:15.617Z,19.20
2023-05-10T17:26:43.638Z,19.20
2023-05-10T17:29:44.036Z,19.19
2023-05-10T17:32:30.779Z,19.18
2023-05-10T17:35:15.393Z,19.19
2023-05-10T17:37:49.034Z,19.18
2023-05-10T17:40:17.327Z,19.18
2023-05-10T17:42:54.317Z,19.18
2023-05-10T17:45:29.373Z,19.19
2023-05-10T17:48:23.871Z,19.20
2023-05-10T17:50:53.602Z,19.20
2023-05-10T17:53:24.790Z,19.20
2023-05-10T17:55:54.019Z,19.20
2023-05-10T17:58:24.456Z,19.19
2023-05-10T18:00:53.196Z,19.19
2023-05-10T18:03:21.243Z,19.19
2023-05-10T18:05:53.446Z,19.20
2023-05-10T18:08:27.180Z,19.18
2023-05-10T18:10:55.253Z,19.20
2023-05-10T18:13:24.309Z,19.22
2023-05-10T18:15:55.482Z,19.21
2023-05-10T18:18:26.284Z,19.22
2023-05-10T18:20:57.811Z,19.21
2023-05-10T18:23:27.591Z,19.21
2023-05-10T18:25:57.734Z,19.22
2023-05-10T18:28:25.974Z,19.21
2023-05-10T18:30:54.480Z,19.22
2023-05-10T18:33:23.966Z,19.20
2023-05-10T18:35:54.304Z,19.21
2023-05-10T18:38:22.303Z,19.22
2023-05-10T18:40:51.744Z,19.22
2023-05-10T18:43:19.843Z,19.22
2023-05-10T18:45:54.571Z,19.22
2023-05-10T18:48:22.926Z,19.22
2023-05-10T18:50:53.339Z,19.21
2023-05-10T18:53:21.485Z,19.21
2023-05-10T18:55:58.761Z,19.21
2023-05-10T18:58:30.072Z,19.21
2023-05-10T19:01:04.910Z,19.21
2023-05-10T19:03:33.054Z,19.22
2023-05-10T19:06:01.654Z,19.23
2023-05-10T19:08:29.699Z,19.24
2023-05-10T19:10:59.017Z,19.22
2023-05-10T19:13:29.670Z,19.22
2023-05-10T19:16:04.795Z,19.22
2023-05-10T19:18:33.817Z,19.22
2023-05-10T19:21:04.802Z,19.21
2023-05-10T19:23:33.358Z,19.21
2023-05-10T19:26:04.674Z,19.22
2023-05-10T19:28:34.079Z,19.22
2023-05-10T19:31:23.440Z,19.23
2023-05-10T19:33:53.859Z,19.23
2023-05-10T19:36:22.146Z,19.23
2023-05-10T19:38:52.557Z,19.22
2023-05-10T19:41:26.518Z,19.23
2023-05-10T19:48:03.850Z,19.23
2023-05-10T19:50:35.069Z,19.20
2023-05-10T19:53:03.314Z,19.21
2023-05-10T19:55:32.013Z,19.25
2023-05-10T19:58:01.866Z,19.26
2023-05-10T20:00:29.781Z,19.26
2023-05-10T20:02:58.104Z,19.25
2023-05-10T20:05:29.249Z,19.25
2023-05-10T20:07:57.569Z,19.25
2023-05-10T20:10:27.154Z,19.24
2023-05-10T20:12:55.862Z,19.22
2023-05-10T20:15:26.195Z,19.23
2023-05-10T20:18:01.457Z,19.23
2023-05-10T20:20:29.721Z,19.24
2023-05-10T20:22:57.624Z,19.25
2023-05-10T20:25:25.710Z,19.25
2023-05-10T20:27:53.746Z,19.25
2023-05-10T20:30:21.746Z,19.25
2023-05-10T20:33:00.073Z,19.24
2023-05-10T20:35:32.215Z,19.25
2023-05-10T20:38:02.155Z,19.24
2023-05-10T20:40:30.773Z,19.24
2023-05-10T20:42:58.880Z,19.24
2023-05-10T20:45:27.446Z,19.23
2023-05-10T20:47:55.473Z,19.26
2023-05-10T20:50:25.299Z,19.26
2023-05-10T20:52:55.662Z,19.27
2023-05-10T20:55:38.556Z,19.26
2023-05-10T20:58:06.602Z,19.26
2023-05-10T21:00:36.258Z,19.25
2023-05-10T21:03:04.758Z,19.26
2023-05-10T21:05:42.091Z,19.25
2023-05-10T21:08:10.209Z,19.25
2023-05-10T21:10:38.232Z,19.26
2023-05-10T21:13:06.188Z,19.27
2023-05-10T21:15:34.156Z,19.28
2023-05-10T21:18:02.223Z,19.28
2023-05-10T21:20:30.587Z,19.26
2023-05-10T21:23:00.014Z,19.27
2023-05-10T21:25:27.954Z,19.27
2023-05-10T21:27:56.431Z,19.26
2023-05-10T21:30:24.512Z,19.25
2023-05-10T21:32:56.864Z,19.24
2023-05-10T21:35:25.342Z,19.26
2023-05-10T21:37:53.426Z,19.26
2023-05-10T21:40:23.166Z,19.27
2023-05-10T21:42:51.029Z,19.27
2023-05-10T21:45:19.176Z,19.27
2023-05-10T21:47:47.205Z,19.26
2023-05-10T21:50:15.242Z,19.25
2023-05-10T21:52:43.536Z,19.26
2023-05-10T21:55:11.444Z,19.25
2023-05-10T21:57:41.408Z,19.25
2023-05-10T22:00:10.289Z,19.24
2023-05-10T22:02:39.822Z,19.25
2023-05-10T22:05:08.056Z,19.26
2023-05-10T22:07:35.992Z,19.26
2023-05-10T22:10:03.907Z,19.26
2023-05-10T22:12:31.935Z,19.26
2023-05-10T22:15:10.430Z,19.25
2023-05-10T22:17:39.371Z,19.25
2023-05-10T22:20:08.495Z,19.24
2023-05-10T22:22:36.691Z,19.24
2023-05-10T22:25:05.030Z,19.23
2023-05-10T22:27:32.965Z,19.23
2023-05-10T22:30:04.862Z,19.25
2023-05-10T22:32:32.866Z,19.24
2023-05-10T22:35:00.732Z,19.25
2023-05-10T22:37:28.722Z,19.24
2023-05-10T22:39:56.730Z,19.23
2023-05-10T22:42:24.616Z,19.22
2023-05-10T22:44:52.715Z,19.22
2023-05-10T22:47:22.151Z,19.21
2023-05-10T22:49:50.172Z,19.21
2023-05-10T22:52:18.184Z,19.22
2023-05-10T22:54:46.007Z,19.21
2023-05-10T22:57:13.931Z,19.22
2023-05-10T22:59:42.502Z,19.23
